Time;durP1;ratioP1;P1;durP2;ratioP2;P2;SDS_P1;SDS_P2;PMS_P1;PMS_P2;Temp;Humidity;BMP_temperature;BMP_pressure;BME280_temperature;BME280_humidity;BME280_pressure;Samples;Min_cycle;Max_cycle;Signal;HPM_P1;HPM_P2
2022/04/18 00:00:13;;;;;;;3.83;2.53;;;18.70;99.90;;;;;;5060671;28;20394;-82
2022/04/18 00:02:40;;;;;;;3.20;2.40;;;18.80;99.90;;;;;;5065110;28;20378;-84
2022/04/18 00:05:07;;;;;;;5.05;2.92;;;19.00;99.90;;;;;;5069211;28;20435;-83
2022/04/18 00:07:35;;;;;;;4.13;2.92;;;19.10;99.90;;;;;;5069946;28;20419;-82
2022/04/18 00:10:02;;;;;;;3.92;2.60;;;19.20;99.90;;;;;;5058170;28;20407;-83
2022/04/18 00:12:29;;;;;;;4.37;2.60;;;19.40;99.90;;;;;;5052480;28;20382;-87
2022/04/18 00:14:57;;;;;;;3.38;2.30;;;19.50;99.90;;;;;;5049793;28;20379;-84
2022/04/18 00:17:24;;;;;;;5.32;2.47;;;19.60;99.90;;;;;;5049705;28;20376;-82
2022/04/18 00:19:51;;;;;;;3.20;2.20;;;19.70;99.90;;;;;;5051346;28;20416;-85
2022/04/18 00:22:18;;;;;;;5.18;2.25;;;19.80;99.90;;;;;;5059809;28;20434;-81
2022/04/18 00:24:45;;;;;;;3.55;2.00;;;19.90;99.90;;;;;;5067142;28;20387;-81
2022/04/18 00:27:12;;;;;;;3.75;2.50;;;20.00;99.90;;;;;;5069213;28;20469;-82
2022/04/18 00:29:39;;;;;;;3.20;2.35;;;20.20;99.90;;;;;;5069441;28;20500;-80
2022/04/18 00:32:07;;;;;;;3.73;2.27;;;20.50;99.90;;;;;;5062701;28;20393;-80
2022/04/18 00:34:33;;;;;;;3.63;2.22;;;20.50;99.90;;;;;;5056232;28;20879;-80
2022/04/18 00:37:00;;;;;;;2.50;2.00;;;20.70;99.90;;;;;;5069308;28;20838;-81
2022/04/18 00:39:27;;;;;;;3.20;1.98;;;20.90;99.90;;;;;;5069405;28;20388;-80
2022/04/18 00:41:54;;;;;;;4.75;2.00;;;21.20;99.90;;;;;;5050624;28;20458;-81
2022/04/18 00:44:21;;;;;;;2.87;1.90;;;21.40;99.90;;;;;;5052795;28;20388;-80
2022/04/18 00:46:48;;;;;;;4.63;2.10;;;21.30;99.90;;;;;;5061025;28;20407;-81
2022/04/18 00:49:15;;;;;;;2.53;2.05;;;21.20;99.90;;;;;;5068596;28;20443;-80
2022/04/18 00:51:42;;;;;;;2.47;1.60;;;21.20;99.90;;;;;;5055329;28;20392;-81
2022/04/18 00:54:10;;;;;;;2.38;1.80;;;21.30;99.90;;;;;;5059392;28;20381;-81
2022/04/18 00:56:41;;;;;;;4.03;2.13;;;21.40;99.90;;;;;;5059444;28;20394;-82
2022/04/18 00:59:09;;;;;;;4.05;2.20;;;21.50;99.90;;;;;;5051476;28;20391;-81
2022/04/18 01:01:37;;;;;;;4.10;2.00;;;21.70;99.90;;;;;;5065307;28;20403;-82
2022/04/18 01:04:05;;;;;;;2.72;1.77;;;21.80;99.90;;;;;;5065519;28;20392;-81
2022/04/18 01:06:33;;;;;;;2.25;1.70;;;21.90;99.90;;;;;;5050612;28;20871;-82
2022/04/18 01:09:01;;;;;;;3.78;1.70;;;22.10;99.90;;;;;;5037108;28;20929;-88
2022/04/18 01:11:28;;;;;;;3.58;1.88;;;22.30;99.90;;;;;;5058087;28;20387;-85
2022/04/18 01:14:00;;;;;;;3.35;2.00;;;22.50;99.90;;;;;;5063319;28;20398;-81
2022/04/18 01:16:27;;;;;;;3.80;1.88;;;22.60;99.90;;;;;;5054292;28;20384;-83
2022/04/18 01:18:56;;;;;;;3.20;1.80;;;22.80;99.90;;;;;;5051514;28;20445;-82
2022/04/18 01:21:23;;;;;;;3.00;1.73;;;22.90;99.90;;;;;;5048913;28;20378;-84
2022/04/18 01:23:50;;;;;;;2.08;1.58;;;23.30;99.90;;;;;;5037449;28;20406;-85
2022/04/18 01:29:02;;;;;;;3.13;1.60;;;24.50;99.40;;;;;;5048959;28;20888;-83
2022/04/18 01:31:35;;;;;;;2.90;1.45;;;25.00;98.50;;;;;;5048673;28;20461;-83
2022/04/18 01:34:04;;;;;;;4.13;1.58;;;25.80;95.10;;;;;;5042543;28;20896;-82
2022/04/18 01:36:31;;;;;;;1.85;1.40;;;25.80;96.00;;;;;;5064117;28;20721;-82
2022/04/18 01:38:59;;;;;;;3.00;1.50;;;26.20;93.90;;;;;;5051857;28;20409;-82
2022/04/18 01:41:26;;;;;;;3.25;1.50;;;26.50;93.60;;;;;;5055766;28;20391;-81
2022/04/18 01:43:53;;;;;;;2.95;1.45;;;27.10;92.30;;;;;;5048290;28;20861;-82
2022/04/18 01:46:20;;;;;;;2.25;1.20;;;27.50;85.30;;;;;;5055950;28;20395;-82
2022/04/18 01:48:51;;;;;;;1.95;1.20;;;27.70;84.80;;;;;;5049500;28;20399;-83
2022/04/18 01:51:18;;;;;;;2.40;1.33;;;28.30;81.00;;;;;;5057576;28;20390;-83
2022/04/18 01:53:46;;;;;;;2.45;1.27;;;28.00;82.00;;;;;;5058308;28;20386;-83
2022/04/18 01:56:13;;;;;;;1.60;1.10;;;28.10;80.60;;;;;;5047816;28;20376;-83
2022/04/18 01:58:40;;;;;;;2.13;1.30;;;28.30;76.10;;;;;;5030026;28;20392;-83
2022/04/18 02:01:07;;;;;;;2.58;1.30;;;28.10;77.30;;;;;;5047830;28;20609;-82
2022/04/18 02:03:34;;;;;;;1.55;1.15;;;28.10;78.00;;;;;;5047945;28;20930;-83
2022/04/18 02:06:01;;;;;;;2.60;1.00;;;28.30;74.40;;;;;;5047355;28;20396;-83
2022/04/18 02:08:28;;;;;;;2.00;1.30;;;28.50;76.20;;;;;;5047765;28;20383;-83
2022/04/18 02:10:55;;;;;;;2.20;1.20;;;29.10;73.80;;;;;;5047605;28;20458;-83
2022/04/18 02:13:22;;;;;;;2.38;0.90;;;29.60;70.10;;;;;;5047686;28;20856;-82
2022/04/18 02:15:49;;;;;;;2.17;1.08;;;30.20;67.00;;;;;;5047504;28;20473;-82
2022/04/18 02:18:16;;;;;;;1.02;0.93;;;29.80;66.80;;;;;;5047581;28;20392;-83
2022/04/18 02:20:43;;;;;;;3.60;1.00;;;29.60;66.50;;;;;;5046870;28;20380;-83
2022/04/18 02:23:10;;;;;;;2.67;1.10;;;29.60;66.70;;;;;;5047540;28;20379;-83
2022/04/18 02:25:37;;;;;;;2.20;0.90;;;30.00;67.10;;;;;;5047302;28;20919;-82
2022/04/18 02:28:04;;;;;;;2.22;0.90;;;29.90;65.90;;;;;;5047096;28;20403;-83
2022/04/18 02:30:31;;;;;;;2.38;1.00;;;29.80;64.20;;;;;;5047383;28;20876;-83
2022/04/18 02:32:59;;;;;;;3.60;0.77;;;29.40;63.70;;;;;;5047179;28;20379;-83
2022/04/18 02:35:26;;;;;;;1.27;0.80;;;28.80;64.70;;;;;;5047351;28;20747;-82
2022/04/18 02:37:54;;;;;;;1.88;0.77;;;28.50;65.80;;;;;;5051943;28;20382;-81
2022/04/18 02:40:22;;;;;;;2.87;0.90;;;28.90;65.90;;;;;;5047897;28;20386;-82
2022/04/18 02:42:49;;;;;;;0.95;0.63;;;29.50;64.90;;;;;;5047190;28;20380;-83
2022/04/18 02:45:18;;;;;;;3.88;0.90;;;30.20;62.60;;;;;;5047168;28;20398;-83
2022/04/18 02:47:46;;;;;;;1.40;0.70;;;30.90;60.90;;;;;;5047304;28;20371;-81
2022/04/18 02:50:14;;;;;;;1.40;0.77;;;31.40;58.90;;;;;;5047435;28;20457;-81
2022/04/18 02:52:41;;;;;;;1.48;0.70;;;32.10;57.40;;;;;;5047098;28;20946;-81
2022/04/18 02:55:08;;;;;;;1.90;0.70;;;32.30;56.80;;;;;;5047424;28;20764;-82
2022/04/18 02:57:35;;;;;;;2.60;0.80;;;31.90;56.40;;;;;;5046936;28;20375;-82
2022/04/18 03:00:03;;;;;;;2.35;0.70;;;30.60;58.00;;;;;;5046943;28;20851;-81
2022/04/18 03:02:30;;;;;;;1.33;0.70;;;29.60;60.50;;;;;;5046890;28;20411;-81
2022/04/18 03:04:57;;;;;;;1.33;0.80;;;29.10;62.30;;;;;;5046584;28;20392;-81
2022/04/18 03:07:24;;;;;;;3.13;0.82;;;29.30;62.30;;;;;;5047246;28;20717;-81
2022/04/18 03:09:51;;;;;;;1.98;0.77;;;29.40;62.60;;;;;;5046889;28;20473;-82
2022/04/18 03:12:18;;;;;;;2.75;0.80;;;29.50;62.00;;;;;;5029081;28;20514;-82
2022/04/18 03:14:45;;;;;;;1.02;0.70;;;29.00;63.20;;;;;;5029539;28;20431;-82
2022/04/18 03:17:12;;;;;;;1.40;0.80;;;29.20;63.70;;;;;;5046629;28;20879;-82
2022/04/18 03:19:39;;;;;;;2.90;0.90;;;29.80;62.40;;;;;;5046750;28;20390;-81
2022/04/18 03:22:06;;;;;;;1.40;0.70;;;30.50;60.70;;;;;;5046682;28;20418;-81
2022/04/18 03:24:34;;;;;;;2.28;0.80;;;31.20;59.40;;;;;;5046612;28;20747;-81
2022/04/18 03:27:02;;;;;;;1.05;0.70;;;31.50;57.40;;;;;;5046517;28;20495;-81
2022/04/18 03:29:31;;;;;;;1.95;0.70;;;31.50;57.10;;;;;;5046456;28;20406;-82
2022/04/18 03:31:58;;;;;;;1.43;0.70;;;31.30;54.70;;;;;;5048559;28;20441;-81
2022/04/18 03:34:26;;;;;;;3.27;0.70;;;30.90;57.20;;;;;;5050597;28;20372;-81
2022/04/18 03:39:56;;;;;;;1.65;0.70;;;32.10;55.80;;;;;;5050773;28;20425;-82
2022/04/18 03:42:31;;;;;;;1.15;0.60;;;32.70;53.50;;;;;;5050764;28;21004;-82
2022/04/18 03:45:04;;;;;;;1.75;0.68;;;31.60;54.90;;;;;;5050583;28;20457;-82
2022/04/18 03:47:31;;;;;;;1.10;0.70;;;31.20;55.60;;;;;;5050239;28;20380;-82
2022/04/18 03:49:58;;;;;;;0.85;0.60;;;31.00;56.40;;;;;;5050321;28;20400;-82
2022/04/18 03:52:26;;;;;;;1.85;0.63;;;31.10;55.60;;;;;;5050554;28;20512;-82
2022/04/18 03:54:53;;;;;;;1.93;0.70;;;32.00;55.00;;;;;;5050269;28;20379;-82
2022/04/18 03:57:20;;;;;;;0.75;0.60;;;33.30;52.80;;;;;;5050429;28;20459;-82
2022/04/18 03:59:47;;;;;;;1.20;0.70;;;34.70;50.20;;;;;;5050188;28;20372;-82
2022/04/18 04:02:14;;;;;;;0.85;0.85;;;36.00;48.20;;;;;;5050183;28;20710;-83
2022/04/18 04:04:42;;;;;;;1.80;0.95;;;36.90;46.40;;;;;;5049790;28;20849;-82
2022/04/18 04:07:09;;;;;;;1.25;0.70;;;36.40;46.20;;;;;;5050163;28;20736;-82
2022/04/18 04:09:37;;;;;;;1.13;0.63;;;35.40;45.60;;;;;;5050077;28;20403;-82
2022/04/18 04:12:05;;;;;;;1.52;0.93;;;34.00;48.30;;;;;;5050167;28;20368;-82
2022/04/18 04:14:33;;;;;;;1.63;0.70;;;32.90;50.40;;;;;;5049932;28;20375;-81
2022/04/18 04:17:00;;;;;;;1.00;0.65;;;32.40;51.40;;;;;;5049949;28;20379;-82
2022/04/18 04:19:27;;;;;;;1.00;0.70;;;31.90;50.50;;;;;;5049875;28;20371;-81
2022/04/18 04:21:54;;;;;;;1.80;1.20;;;31.80;49.90;;;;;;5049788;28;20414;-82
2022/04/18 04:24:22;;;;;;;1.90;0.90;;;31.80;51.80;;;;;;5049666;28;20753;-82
2022/04/18 04:26:50;;;;;;;1.42;0.90;;;32.40;51.20;;;;;;5057464;28;20379;-82
2022/04/18 04:29:18;;;;;;;1.42;0.80;;;32.50;50.90;;;;;;5051793;28;20410;-82
2022/04/18 04:31:45;;;;;;;1.15;0.80;;;33.20;50.40;;;;;;5069598;28;20503;-83
2022/04/18 04:34:12;;;;;;;2.25;0.90;;;33.90;48.70;;;;;;5064221;28;20878;-80
2022/04/18 04:36:41;;;;;;;2.72;1.00;;;34.70;48.10;;;;;;5052760;28;20399;-83
2022/04/18 04:39:08;;;;;;;1.73;1.10;;;34.80;48.20;;;;;;5060336;28;20758;-84
2022/04/18 04:41:36;;;;;;;3.38;1.10;;;34.90;47.50;;;;;;5050448;28;20372;-82
2022/04/18 04:44:05;;;;;;;0.87;0.83;;;35.20;45.90;;;;;;5054538;28;20394;-83
2022/04/18 04:46:32;;;;;;;1.80;0.80;;;35.30;45.80;;;;;;5069751;28;20385;-83
2022/04/18 04:48:59;;;;;;;1.10;0.90;;;35.10;47.10;;;;;;5051519;28;21273;-82
2022/04/18 04:51:26;;;;;;;2.47;1.00;;;34.60;47.10;;;;;;5069440;28;20382;-83
2022/04/18 04:53:53;;;;;;;1.00;0.90;;;34.70;46.60;;;;;;5053292;28;20400;-82
2022/04/18 04:56:25;;;;;;;1.20;0.90;;;34.20;47.50;;;;;;5048473;28;20376;-80
2022/04/18 04:58:53;;;;;;;1.90;1.00;;;34.10;46.20;;;;;;5063672;28;20415;-82
2022/04/18 05:01:24;;;;;;;2.15;0.80;;;33.70;46.60;;;;;;5066253;28;20394;-81
2022/04/18 05:03:50;;;;;;;1.70;0.80;;;33.80;46.90;;;;;;5064532;28;20382;-81
2022/04/18 05:06:18;;;;;;;1.38;0.90;;;34.10;45.40;;;;;;5050392;28;20408;-81
2022/04/18 05:08:45;;;;;;;3.72;1.02;;;34.40;44.60;;;;;;5069190;28;20370;-82
2022/04/18 05:11:12;;;;;;;0.83;0.73;;;34.90;45.90;;;;;;5054501;28;20430;-85
2022/04/18 05:13:39;;;;;;;1.55;0.90;;;35.40;44.30;;;;;;5054017;28;20386;-83
2022/04/18 05:16:07;;;;;;;2.45;1.05;;;35.80;43.10;;;;;;5049415;28;20419;-83
2022/04/18 05:18:34;;;;;;;2.80;1.00;;;35.50;42.10;;;;;;5053696;28;20937;-83
2022/04/18 05:21:01;;;;;;;1.63;1.00;;;34.10;43.80;;;;;;5056404;28;20477;-82
2022/04/18 05:23:28;;;;;;;2.60;1.23;;;33.30;45.80;;;;;;5068888;28;20386;-83
2022/04/18 05:25:55;;;;;;;1.52;1.10;;;33.20;45.60;;;;;;5063153;28;20471;-83
2022/04/18 05:28:22;;;;;;;1.00;0.80;;;33.40;45.40;;;;;;5066956;28;20464;-84
2022/04/18 05:30:49;;;;;;;2.20;0.98;;;34.10;44.80;;;;;;5058812;28;20414;-84
2022/04/18 05:33:16;;;;;;;1.90;0.90;;;33.80;44.80;;;;;;5055573;28;20394;-82
2022/04/18 05:35:43;;;;;;;2.50;1.10;;;33.80;43.20;;;;;;5056157;28;20386;-84
2022/04/18 05:38:10;;;;;;;1.38;0.90;;;33.00;44.80;;;;;;5060335;28;20384;-82
2022/04/18 05:40:37;;;;;;;2.33;1.52;;;32.80;45.70;;;;;;5055037;28;20390;-82
2022/04/18 05:43:04;;;;;;;2.42;1.88;;;32.30;45.90;;;;;;5062903;28;20393;-82
2022/04/18 05:45:31;;;;;;;1.47;0.93;;;31.80;45.70;;;;;;5051423;28;20426;-83
2022/04/18 05:47:58;;;;;;;5.40;1.60;;;31.30;46.20;;;;;;5048486;28;20440;-82
2022/04/18 05:50:25;;;;;;;1.25;1.00;;;30.80;47.10;;;;;;5048179;28;20494;-82
2022/04/18 05:52:53;;;;;;;1.00;0.88;;;30.20;47.80;;;;;;5048187;28;20379;-82
2022/04/18 05:55:22;;;;;;;2.63;0.93;;;29.80;48.00;;;;;;5046546;28;20386;-83
2022/04/18 05:57:52;;;;;;;1.25;0.93;;;29.20;49.10;;;;;;5049831;28;20457;-83
2022/04/18 06:00:20;;;;;;;1.83;0.90;;;28.80;49.90;;;;;;5065590;28;20385;-83
2022/04/18 06:02:47;;;;;;;2.27;1.10;;;28.50;51.50;;;;;;5068111;28;20431;-82
2022/04/18 06:05:14;;;;;;;2.00;1.10;;;28.30;52.10;;;;;;5065769;28;20394;-83
2022/04/18 06:07:45;;;;;;;2.22;1.10;;;28.10;52.50;;;;;;5067938;28;20378;-82
2022/04/18 06:10:12;;;;;;;2.08;1.35;;;27.90;52.20;;;;;;5060178;28;20886;-83
2022/04/18 06:12:39;;;;;;;1.73;1.30;;;27.80;51.70;;;;;;5049707;28;20384;-85
2022/04/18 06:15:06;;;;;;;2.33;1.00;;;27.60;52.00;;;;;;5064061;28;20469;-82
2022/04/18 06:17:34;;;;;;;3.28;1.80;;;27.50;52.30;;;;;;5049674;28;20434;-83
2022/04/18 06:20:05;;;;;;;2.20;1.65;;;27.50;52.60;;;;;;5056810;28;20430;-83
2022/04/18 06:22:32;;;;;;;7.63;6.30;;;27.50;53.00;;;;;;5047786;28;20391;-82
2022/04/18 06:24:59;;;;;;;3.95;3.40;;;27.40;53.20;;;;;;5061012;28;20478;-82
2022/04/18 06:27:26;;;;;;;5.30;3.63;;;27.30;54.00;;;;;;5043084;28;20381;-83
2022/04/18 06:29:53;;;;;;;5.55;3.88;;;27.20;54.30;;;;;;5062104;28;20962;-83
2022/04/18 06:32:24;;;;;;;8.63;7.30;;;27.00;54.70;;;;;;5051394;28;20397;-82
2022/04/18 06:34:51;;;;;;;6.57;5.00;;;26.80;54.90;;;;;;5065170;28;20390;-82
2022/04/18 06:37:18;;;;;;;15.60;12.10;;;26.70;55.30;;;;;;5056425;28;20385;-82
2022/04/18 06:39:45;;;;;;;10.98;8.43;;;26.70;55.20;;;;;;5050597;28;20453;-85
2022/04/18 06:42:12;;;;;;;5.78;4.82;;;26.60;55.90;;;;;;5066315;28;20378;-81
2022/04/18 06:44:39;;;;;;;10.00;6.18;;;26.50;56.20;;;;;;5061284;28;20383;-83
2022/04/18 06:47:06;;;;;;;4.40;2.30;;;26.30;56.80;;;;;;5047017;28;20450;-82
2022/04/18 06:49:33;;;;;;;3.08;2.17;;;26.10;57.90;;;;;;5047013;28;20474;-82
2022/04/18 06:51:59;;;;;;;2.38;1.90;;;26.00;58.30;;;;;;5046708;28;20817;-82
2022/04/18 06:54:26;;;;;;;2.40;1.60;;;25.80;59.00;;;;;;5051799;28;20393;-82
2022/04/18 06:56:59;;;;;;;7.95;2.67;;;25.70;59.20;;;;;;5058341;28;20427;-82
2022/04/18 06:59:30;;;;;;;5.03;2.75;;;25.40;60.40;;;;;;5043765;28;20892;-82
2022/04/18 07:01:58;;;;;;;7.00;2.67;;;25.20;60.60;;;;;;5046938;28;20517;-81
2022/04/18 07:04:26;;;;;;;6.00;2.72;;;25.00;62.00;;;;;;5048428;28;20441;-81
2022/04/18 07:06:53;;;;;;;8.25;4.00;;;24.80;62.60;;;;;;5049569;28;20448;-83
2022/04/18 07:09:23;;;;;;;11.27;4.97;;;24.50;63.40;;;;;;5059173;28;20479;-82
2022/04/18 07:11:51;;;;;;;7.55;3.83;;;24.30;64.30;;;;;;5058043;28;20797;-84
2022/04/18 07:14:18;;;;;;;6.25;3.00;;;24.20;65.10;;;;;;5059656;28;20879;-83
2022/04/18 07:16:45;;;;;;;5.35;3.00;;;23.90;66.00;;;;;;5048741;28;20445;-81
2022/04/18 07:19:12;;;;;;;8.43;2.80;;;23.80;68.40;;;;;;5046920;28;20379;-80
2022/04/18 07:21:41;;;;;;;10.95;3.22;;;23.70;71.50;;;;;;5056390;28;20378;-81
2022/04/18 07:24:08;;;;;;;6.70;2.90;;;23.50;74.10;;;;;;5067559;28;20405;-84
2022/04/18 07:26:35;;;;;;;8.75;2.55;;;23.40;75.90;;;;;;5048944;28;20378;-82
2022/04/18 07:29:03;;;;;;;3.58;2.10;;;23.30;78.20;;;;;;5048303;28;20469;-81
2022/04/18 07:31:31;;;;;;;4.78;2.80;;;23.20;78.30;;;;;;5066861;28;20912;-83
2022/04/18 07:33:59;;;;;;;6.95;2.70;;;23.00;76.10;;;;;;5054310;28;20378;-82
2022/04/18 07:36:25;;;;;;;11.70;5.30;;;22.90;78.40;;;;;;5051122;28;20387;-84
2022/04/18 07:38:52;;;;;;;8.32;3.13;;;22.70;80.30;;;;;;5052494;28;21000;-82
2022/04/18 07:41:22;;;;;;;4.55;2.03;;;22.60;82.00;;;;;;5061898;28;20428;-82
2022/04/18 07:43:50;;;;;;;5.63;1.90;;;22.40;84.00;;;;;;5051769;28;20867;-81
2022/04/18 07:46:17;;;;;;;7.35;2.10;;;22.30;87.50;;;;;;5050662;28;20870;-84
2022/04/18 07:48:47;;;;;;;4.75;1.80;;;22.30;91.10;;;;;;5054359;28;20385;-83
2022/04/18 07:51:34;;;;;;;3.80;1.80;;;22.20;93.40;;;;;;5054429;28;20388;-83
2022/04/18 07:54:04;;;;;;;4.53;2.10;;;22.20;95.60;;;;;;5046422;28;20455;-83
2022/04/18 07:56:31;;;;;;;5.68;1.95;;;22.10;97.00;;;;;;5058479;28;20413;-83
2022/04/18 07:58:58;;;;;;;5.03;2.20;;;22.00;98.90;;;;;;5047579;28;20376;-82
2022/04/18 08:01:25;;;;;;;7.55;2.40;;;22.00;99.80;;;;;;5046305;28;20390;-82
2022/04/18 08:03:52;;;;;;;5.43;2.13;;;21.90;99.90;;;;;;5047079;28;20853;-84
2022/04/18 08:06:19;;;;;;;3.63;2.20;;;21.80;99.90;;;;;;5052663;28;20405;-82
2022/04/18 08:08:46;;;;;;;4.55;2.00;;;21.70;99.90;;;;;;5048637;28;20383;-87
2022/04/18 08:11:15;;;;;;;4.85;2.50;;;21.70;99.90;;;;;;5046594;28;20806;-81
2022/04/18 08:13:43;;;;;;;5.75;3.22;;;21.60;99.90;;;;;;5046638;28;20375;-80
2022/04/18 08:16:11;;;;;;;4.90;2.90;;;21.50;99.90;;;;;;5059497;28;20435;-82
2022/04/18 08:18:41;;;;;;;6.25;3.20;;;21.40;99.90;;;;;;5061443;28;20379;-83
2022/04/18 08:21:09;;;;;;;6.00;3.40;;;21.40;99.90;;;;;;5050242;28;20736;-82
2022/04/18 08:23:36;;;;;;;4.47;3.20;;;21.30;99.90;;;;;;5050002;28;20923;-84
2022/04/18 08:26:04;;;;;;;3.63;2.50;;;21.30;99.90;;;;;;5069248;28;20398;-82
2022/04/18 08:28:32;;;;;;;4.72;2.55;;;21.30;99.90;;;;;;5068085;28;20902;-83
2022/04/18 08:31:00;;;;;;;3.17;2.13;;;21.30;99.90;;;;;;5051769;28;20837;-83
2022/04/18 08:33:29;;;;;;;4.55;2.05;;;21.30;99.90;;;;;;5065572;28;20408;-85
2022/04/18 08:35:59;;;;;;;3.78;2.30;;;21.20;99.90;;;;;;5069679;28;20479;-85
2022/04/18 08:38:29;;;;;;;3.13;2.00;;;21.10;99.90;;;;;;5068147;28;20382;-84
2022/04/18 08:40:58;;;;;;;2.93;1.80;;;21.00;99.90;;;;;;5050699;28;20801;-84
2022/04/18 08:43:25;;;;;;;3.08;1.98;;;20.90;99.90;;;;;;5068132;28;20520;-84
2022/04/18 08:45:52;;;;;;;3.78;2.10;;;20.90;99.90;;;;;;5069698;28;20381;-83
2022/04/18 08:53:59;;;;;;;4.00;2.10;;;20.80;99.90;;;;;;5059250;28;20384;-83
2022/04/18 08:56:27;;;;;;;4.60;2.10;;;20.60;99.90;;;;;;5051504;28;20395;-83
2022/04/18 08:58:54;;;;;;;5.53;2.10;;;20.60;99.90;;;;;;5054568;28;20375;-82
2022/04/18 09:01:21;;;;;;;3.47;1.90;;;20.50;99.90;;;;;;5056929;28;20394;-82
2022/04/18 09:03:48;;;;;;;3.13;1.80;;;20.40;99.90;;;;;;5050893;28;20444;-83
2022/04/18 09:06:16;;;;;;;2.88;1.90;;;20.40;99.90;;;;;;5050348;28;20510;-83
2022/04/18 09:08:51;;;;;;;3.05;2.00;;;20.30;99.90;;;;;;5069177;28;20390;-83
2022/04/18 09:11:32;;;;;;;4.30;1.90;;;20.30;99.90;;;;;;5068628;28;20382;-84
2022/04/18 09:14:09;;;;;;;5.25;1.80;;;20.20;99.90;;;;;;5067390;28;20378;-81
2022/04/18 09:16:38;;;;;;;3.27;1.80;;;20.10;99.90;;;;;;5056178;28;20390;-82
2022/04/18 09:19:09;;;;;;;2.58;1.90;;;20.10;99.90;;;;;;5067529;28;20753;-80
2022/04/18 09:21:59;;;;;;;3.67;2.00;;;20.10;99.90;;;;;;5070779;28;20390;-79
2022/04/18 09:24:36;;;;;;;3.65;1.88;;;20.00;99.90;;;;;;5050904;28;20384;-84
2022/04/18 09:27:14;;;;;;;5.32;2.33;;;20.00;99.90;;;;;;5066008;28;20378;-81
2022/04/18 09:29:41;;;;;;;3.70;2.03;;;19.90;99.90;;;;;;5058215;28;20766;-81
2022/04/18 09:32:13;;;;;;;5.00;2.30;;;19.80;99.90;;;;;;5053656;28;20422;-81
2022/04/18 09:34:42;;;;;;;4.25;2.17;;;19.80;99.90;;;;;;5061709;28;20380;-81
2022/04/18 09:37:13;;;;;;;5.17;2.40;;;19.70;99.90;;;;;;5062995;28;20892;-80
2022/04/18 09:39:54;;;;;;;4.68;2.28;;;19.70;99.90;;;;;;5068563;28;20911;-81
2022/04/18 09:42:23;;;;;;;5.63;2.40;;;19.70;99.90;;;;;;5065639;28;20504;-82
2022/04/18 09:44:51;;;;;;;4.22;2.60;;;19.60;99.90;;;;;;5068484;28;20734;-82
2022/04/18 09:47:19;;;;;;;4.35;2.50;;;19.60;99.90;;;;;;5062217;28;20413;-82
2022/04/18 09:49:47;;;;;;;4.95;2.42;;;19.60;99.90;;;;;;5049730;28;20837;-82
2022/04/18 09:52:19;;;;;;;4.10;2.50;;;19.50;99.90;;;;;;5056324;28;20411;-82
2022/04/18 09:54:50;;;;;;;3.35;2.22;;;19.40;99.90;;;;;;5048160;28;20387;-82
2022/04/18 09:57:23;;;;;;;5.32;2.30;;;19.40;99.90;;;;;;5047954;28;20383;-83
2022/04/18 09:59:51;;;;;;;5.57;2.25;;;19.40;99.90;;;;;;5054429;28;20401;-81
2022/04/18 10:02:19;;;;;;;5.03;2.50;;;19.40;99.90;;;;;;5055008;28;20439;-82
2022/04/18 10:04:46;;;;;;;4.15;2.28;;;19.30;99.90;;;;;;5065165;28;20889;-82
2022/04/18 10:07:14;;;;;;;5.85;2.60;;;19.40;99.90;;;;;;5067578;28;20473;-82
2022/04/18 10:09:42;;;;;;;4.35;2.40;;;19.30;99.90;;;;;;5048644;28;20890;-83
2022/04/18 10:12:11;;;;;;;5.43;2.50;;;19.30;99.90;;;;;;5061368;28;20395;-82
2022/04/18 10:14:39;;;;;;;4.88;2.70;;;19.20;99.90;;;;;;5067234;28;20988;-82
2022/04/18 10:17:08;;;;;;;6.90;2.73;;;19.20;99.90;;;;;;5050543;28;20893;-82
2022/04/18 10:20:06;;;;;;;4.00;2.75;;;19.20;99.90;;;;;;5047513;28;20376;-82
2022/04/18 10:23:07;;;;;;;6.50;2.80;;;19.10;99.90;;;;;;5050558;28;20390;-83
2022/04/18 10:26:05;;;;;;;8.18;3.00;;;19.10;99.90;;;;;;5056333;28;20386;-81
2022/04/18 10:28:41;;;;;;;5.65;3.10;;;19.00;99.90;;;;;;5067620;28;20362;-82
2022/04/18 10:31:16;;;;;;;4.53;2.95;;;19.00;99.90;;;;;;5066986;28;20500;-82
2022/04/18 10:33:44;;;;;;;4.33;2.90;;;18.90;99.90;;;;;;5063800;28;20489;-82
2022/04/18 10:36:12;;;;;;;5.93;3.08;;;18.90;99.90;;;;;;5054829;28;20480;-82
2022/04/18 10:38:44;;;;;;;5.67;3.00;;;18.80;99.90;;;;;;5055771;28;20712;-82
2022/04/18 10:41:32;;;;;;;4.25;2.80;;;18.80;99.90;;;;;;5059813;28;20402;-81
2022/04/18 10:44:08;;;;;;;4.85;2.78;;;18.70;99.90;;;;;;5049345;28;20384;-83
2022/04/18 10:46:50;;;;;;;4.43;2.78;;;18.70;99.90;;;;;;5057740;28;20436;-83
2022/04/18 10:49:23;;;;;;;5.53;2.95;;;18.60;99.90;;;;;;5066753;28;20394;-84
2022/04/18 10:51:53;;;;;;;4.30;2.70;;;18.60;99.90;;;;;;5066599;28;20437;-82
2022/04/18 10:54:22;;;;;;;4.13;2.50;;;18.50;99.90;;;;;;5049863;28;20770;-82
2022/04/18 10:57:11;;;;;;;3.97;2.60;;;18.50;99.90;;;;;;5063017;28;20397;-83
2022/04/18 10:59:42;;;;;;;4.30;2.63;;;18.40;99.90;;;;;;5053402;28;20390;-81
2022/04/18 11:02:29;;;;;;;6.97;2.65;;;18.40;99.90;;;;;;5059925;28;20390;-82
2022/04/18 11:04:56;;;;;;;4.32;2.80;;;18.40;99.90;;;;;;5051622;28;20478;-82
2022/04/18 11:07:38;;;;;;;5.90;2.70;;;18.30;99.90;;;;;;5052088;28;20396;-82
2022/04/18 11:10:18;;;;;;;4.43;2.72;;;18.30;99.90;;;;;;5049848;28;20401;-81
2022/04/18 11:12:45;;;;;;;5.32;2.70;;;18.30;99.90;;;;;;5054762;28;20424;-83
2022/04/18 11:15:13;;;;;;;6.30;2.75;;;18.20;99.90;;;;;;5059357;28;20384;-82
2022/04/18 11:17:41;;;;;;;6.13;2.80;;;18.20;99.90;;;;;;5062286;28;20406;-82
2022/04/18 11:20:27;;;;;;;6.43;2.75;;;18.20;99.90;;;;;;5049775;28;20941;-83
2022/04/18 11:23:27;;;;;;;6.13;3.05;;;18.20;99.90;;;;;;5053544;28;21046;-82
2022/04/18 11:26:06;;;;;;;6.97;2.90;;;18.10;99.90;;;;;;5042848;28;20795;-84
2022/04/18 11:28:39;;;;;;;7.00;2.90;;;18.30;99.90;;;;;;5049504;28;20482;-82
2022/04/18 11:31:11;;;;;;;5.60;3.00;;;18.10;99.90;;;;;;5047024;28;20423;-83
2022/04/18 11:33:42;;;;;;;6.97;2.92;;;18.00;99.90;;;;;;5054134;28;21337;-86
2022/04/18 11:36:13;;;;;;;5.60;2.90;;;18.00;99.90;;;;;;5066814;28;20389;-84
2022/04/18 11:38:41;;;;;;;5.63;3.00;;;18.00;99.90;;;;;;5066954;28;20381;-87
2022/04/18 11:41:12;;;;;;;5.38;3.00;;;17.90;99.90;;;;;;5059030;28;20414;-83
2022/04/18 11:43:40;;;;;;;6.30;3.38;;;17.90;99.90;;;;;;5050207;28;20857;-85
2022/04/18 11:46:09;;;;;;;5.13;2.90;;;17.90;99.90;;;;;;5046858;28;20387;-85
2022/04/18 11:48:37;;;;;;;6.00;3.15;;;17.80;99.90;;;;;;5053385;28;20381;-84
2022/04/18 11:51:05;;;;;;;5.68;3.20;;;17.80;99.90;;;;;;5055233;28;20406;-84
2022/04/18 11:53:34;;;;;;;6.07;2.97;;;17.70;99.90;;;;;;5048053;28;20375;-84
2022/04/18 11:56:06;;;;;;;4.53;2.77;;;17.70;99.90;;;;;;5069483;28;20382;-84
2022/04/18 11:58:40;;;;;;;5.72;3.03;;;17.70;99.90;;;;;;5070324;28;20404;-84
2022/04/18 12:06:46;;;;;;;4.05;2.90;;;17.60;99.90;;;;;;5070801;28;20397;-87
2022/04/18 12:09:22;;;;;;;6.88;3.08;;;17.60;99.90;;;;;;5045195;28;21325;-83
2022/04/18 12:11:50;;;;;;;4.22;2.72;;;17.60;99.90;;;;;;5050115;28;20387;-84
2022/04/18 12:14:18;;;;;;;5.18;2.75;;;17.60;99.90;;;;;;5049993;28;20736;-83
2022/04/18 12:16:45;;;;;;;3.97;2.70;;;17.60;99.90;;;;;;5050032;28;20388;-84
2022/04/18 12:19:15;;;;;;;4.32;2.47;;;17.60;99.90;;;;;;5032095;28;20856;-85
2022/04/18 12:21:44;;;;;;;6.03;2.60;;;17.60;99.90;;;;;;5050582;28;20395;-87
2022/04/18 12:24:11;;;;;;;5.32;2.47;;;17.60;99.90;;;;;;5064851;28;20741;-84
2022/04/18 12:26:39;;;;;;;3.47;2.35;;;17.60;99.90;;;;;;5069419;28;20389;-83
2022/04/18 12:29:08;;;;;;;5.50;2.23;;;17.60;99.90;;;;;;5064334;28;20818;-82
2022/04/18 12:31:42;;;;;;;6.00;2.38;;;17.60;99.90;;;;;;5064168;28;20443;-83
2022/04/18 12:34:22;;;;;;;3.90;2.17;;;17.60;99.90;;;;;;5069629;28;20377;-83
2022/04/18 12:36:59;;;;;;;4.57;2.07;;;17.60;99.90;;;;;;5068895;28;20370;-82
2022/04/18 12:39:27;;;;;;;4.32;1.85;;;17.50;99.90;;;;;;5068767;28;20432;-83
2022/04/18 12:42:04;;;;;;;5.10;2.13;;;17.60;99.90;;;;;;5068221;28;20943;-83
2022/04/18 12:44:31;;;;;;;2.67;2.00;;;17.60;99.90;;;;;;5069337;28;20420;-83
2022/04/18 12:46:58;;;;;;;2.63;1.85;;;17.50;99.90;;;;;;5069364;28;20379;-82
2022/04/18 12:49:25;;;;;;;3.20;1.80;;;17.50;99.90;;;;;;5069352;28;20417;-83
2022/04/18 12:51:53;;;;;;;3.95;1.88;;;17.60;99.90;;;;;;5071426;28;20396;-81
2022/04/18 12:54:20;;;;;;;2.97;1.90;;;17.60;99.90;;;;;;5088936;28;20365;-83
2022/04/18 12:56:48;;;;;;;3.58;1.75;;;17.60;99.90;;;;;;5049319;28;20387;-80
2022/04/18 12:59:24;;;;;;;3.95;2.10;;;17.60;99.90;;;;;;5052921;28;20440;-84
2022/04/18 13:01:51;;;;;;;4.78;1.80;;;17.60;99.90;;;;;;5067350;28;20394;-83
2022/04/18 13:04:28;;;;;;;3.55;2.00;;;17.50;99.90;;;;;;5049148;28;20802;-82
2022/04/18 13:07:02;;;;;;;3.93;2.10;;;17.50;99.90;;;;;;5068872;28;20390;-84
2022/04/18 13:09:29;;;;;;;4.95;2.05;;;17.60;99.90;;;;;;5050233;28;20412;-82
2022/04/18 13:12:05;;;;;;;3.30;1.95;;;17.50;99.90;;;;;;5062292;28;20382;-83